Time;durP1;ratioP1;P1;durP2;ratioP2;P2;SDS_P1;SDS_P2;PMS_P1;PMS_P2;Temp;Humidity;BMP_temperature;BMP_pressure;BME280_temperature;BME280_humidity;BME280_pressure;Samples;Min_cycle;Max_cycle;Signal;HPM_P1;HPM_P2
2022/09/21 00:02:00;;;;;;;3.33;0.30;;;24.70;39.60;;;;;;4821339;29;20054;-54
2022/09/21 00:04:27;;;;;;;3.08;0.45;;;24.60;39.70;;;;;;4821970;29;20042;-51
2022/09/21 00:06:54;;;;;;;0.47;0.20;;;24.60;39.70;;;;;;4820803;29;20082;-52
2022/09/21 00:09:22;;;;;;;0.47;0.20;;;24.60;39.80;;;;;;4820365;29;20053;-52
2022/09/21 00:11:49;;;;;;;0.75;0.20;;;24.60;39.80;;;;;;4820942;29;20129;-52
2022/09/21 00:14:18;;;;;;;4.13;0.10;;;24.50;39.70;;;;;;4820881;29;20138;-50
2022/09/21 00:16:45;;;;;;;0.85;0.10;;;24.50;39.70;;;;;;4819888;29;20137;-50
2022/09/21 00:19:12;;;;;;;0.95;0.10;;;24.50;39.80;;;;;;4820584;29;20053;-54
2022/09/21 00:21:39;;;;;;;2.08;0.10;;;24.50;39.80;;;;;;4821128;29;20053;-54
2022/09/21 00:24:07;;;;;;;2.05;0.40;;;24.50;39.80;;;;;;4820240;29;20444;-53
2022/09/21 00:26:34;;;;;;;0.43;0.10;;;24.50;39.80;;;;;;4820339;29;20133;-52
2022/09/21 00:29:03;;;;;;;0.15;0.10;;;24.50;39.80;;;;;;4820524;29;20039;-51
2022/09/21 00:31:32;;;;;;;2.05;0.30;;;24.50;39.90;;;;;;4820243;29;20125;-53
2022/09/21 00:34:00;;;;;;;1.73;0.20;;;24.50;39.80;;;;;;4823064;29;20050;-51
2022/09/21 00:36:28;;;;;;;0.38;0.20;;;24.50;39.90;;;;;;4820367;29;20082;-51
2022/09/21 00:38:57;;;;;;;0.22;0.20;;;24.50;39.90;;;;;;4820331;29;20038;-51
2022/09/21 00:41:27;;;;;;;0.75;0.20;;;24.50;39.90;;;;;;4820343;29;20592;-51
2022/09/21 00:44:33;;;;;;;4.20;0.95;;;24.40;40.00;;;;;;4819776;29;20042;-48
2022/09/21 00:47:09;;;;;;;0.20;0.10;;;24.50;40.00;;;;;;4812929;29;20508;-49
2022/09/21 00:49:37;;;;;;;1.30;0.10;;;24.40;40.10;;;;;;4819485;29;20446;-48
2022/09/21 00:52:07;;;;;;;1.60;0.10;;;24.40;40.20;;;;;;4812010;29;20412;-48
2022/09/21 00:54:40;;;;;;;0.20;0.10;;;24.40;40.20;;;;;;4820210;29;20050;-49
2022/09/21 00:57:07;;;;;;;2.05;0.45;;;24.40;40.20;;;;;;4819971;29;20089;-49
2022/09/21 00:59:37;;;;;;;0.20;0.10;;;24.30;40.10;;;;;;4819885;29;20042;-52
2022/09/21 01:02:05;;;;;;;1.10;0.10;;;24.40;40.30;;;;;;4819794;29;20042;-49
2022/09/21 01:04:34;;;;;;;1.40;0.15;;;24.40;40.20;;;;;;4819979;29;20401;-51
2022/09/21 01:07:05;;;;;;;0.10;0.10;;;24.30;40.30;;;;;;4819726;29;20049;-53
2022/09/21 01:09:33;;;;;;;0.35;0.10;;;24.30;40.30;;;;;;4818343;29;20062;-52
2022/09/21 01:12:13;;;;;;;0.30;0.10;;;24.30;40.30;;;;;;4819647;29;20054;-53
2022/09/21 01:14:56;;;;;;;0.20;0.20;;;24.30;40.30;;;;;;4819760;29;20058;-50
2022/09/21 01:17:35;;;;;;;0.20;0.20;;;24.30;40.30;;;;;;4818878;29;20419;-50
2022/09/21 01:20:34;;;;;;;1.40;0.08;;;24.30;40.30;;;;;;4818908;29;20054;-49
2022/09/21 01:23:26;;;;;;;1.55;0.55;;;24.30;40.20;;;;;;4780442;30;20058;-51
2022/09/21 01:26:06;;;;;;;2.17;0.30;;;24.20;40.10;;;;;;4777752;30;20062;-48
2022/09/21 01:28:53;;;;;;;0.38;0.10;;;24.20;40.20;;;;;;4780825;30;20150;-47
2022/09/21 01:31:23;;;;;;;0.20;0.10;;;24.20;40.20;;;;;;4780618;30;20048;-50
2022/09/21 01:33:56;;;;;;;0.10;0.10;;;24.10;40.10;;;;;;4784135;29;20555;-49
2022/09/21 01:36:28;;;;;;;0.20;0.10;;;24.10;40.10;;;;;;4780329;30;20090;-47
2022/09/21 01:39:03;;;;;;;0.40;0.10;;;24.10;40.10;;;;;;4780536;30;20620;-50
2022/09/21 01:41:31;;;;;;;1.90;0.10;;;24.10;40.10;;;;;;4765083;30;20162;-49
2022/09/21 01:44:07;;;;;;;1.55;0.20;;;24.10;40.10;;;;;;4780829;29;20301;-49
2022/09/21 01:46:36;;;;;;;1.58;0.10;;;24.10;40.00;;;;;;4780803;29;20096;-49
2022/09/21 01:49:09;;;;;;;0.50;0.10;;;24.10;40.10;;;;;;4780529;30;20052;-48
2022/09/21 01:51:42;;;;;;;0.10;0.10;;;24.10;40.20;;;;;;4780562;30;20217;-49
2022/09/21 01:54:12;;;;;;;0.00;0.00;;;24.10;40.10;;;;;;4780022;29;20048;-48
2022/09/21 01:56:45;;;;;;;0.88;0.10;;;24.10;40.10;;;;;;4780484;30;20052;-47
2022/09/21 01:59:20;;;;;;;1.83;0.10;;;24.10;40.20;;;;;;4786816;29;20050;-50
2022/09/21 02:01:51;;;;;;;0.65;0.10;;;24.10;40.10;;;;;;4815351;29;20129;-52
2022/09/21 02:04:18;;;;;;;1.30;0.10;;;24.10;40.10;;;;;;4821797;29;20042;-49
2022/09/21 02:06:47;;;;;;;1.67;0.10;;;24.10;40.10;;;;;;4822330;29;20042;-50
2022/09/21 02:09:14;;;;;;;0.25;0.10;;;24.10;40.10;;;;;;4822269;29;20082;-48
2022/09/21 02:11:42;;;;;;;0.80;0.22;;;24.10;40.10;;;;;;4822845;29;20050;-51
2022/09/21 02:14:11;;;;;;;0.68;0.10;;;24.10;40.10;;;;;;4822951;29;20531;-52
2022/09/21 02:16:45;;;;;;;0.25;0.10;;;24.10;40.10;;;;;;4822278;29;20428;-50
2022/09/21 02:19:20;;;;;;;0.30;0.30;;;24.10;40.10;;;;;;4821627;29;20053;-52
2022/09/21 02:21:58;;;;;;;0.10;0.00;;;24.00;40.20;;;;;;4822027;29;20042;-50
2022/09/21 02:24:33;;;;;;;0.40;0.10;;;24.00;40.10;;;;;;4822209;29;20102;-47
2022/09/21 02:27:04;;;;;;;0.08;0.03;;;24.00;40.10;;;;;;4822127;29;20156;-49
2022/09/21 02:29:41;;;;;;;0.73;0.25;;;24.00;40.20;;;;;;4822074;29;20042;-52
2022/09/21 02:32:16;;;;;;;0.95;0.10;;;24.00;40.10;;;;;;4821717;29;20046;-50
2022/09/21 02:34:46;;;;;;;0.20;0.10;;;24.00;40.20;;;;;;4819947;29;20466;-51
2022/09/21 02:37:21;;;;;;;1.10;0.10;;;24.00;40.20;;;;;;4821574;29;20058;-53
2022/09/21 02:39:57;;;;;;;0.80;0.10;;;24.00;40.30;;;;;;4821663;29;20046;-47
2022/09/21 02:42:30;;;;;;;0.10;0.10;;;24.00;40.30;;;;;;4821976;29;20161;-50
2022/09/21 02:45:03;;;;;;;0.93;0.00;;;23.90;40.20;;;;;;4821790;29;20154;-51
2022/09/21 02:47:36;;;;;;;0.32;0.10;;;23.90;40.30;;;;;;4821229;29;20049;-50
2022/09/21 02:50:08;;;;;;;1.38;0.10;;;23.90;40.30;;;;;;4821466;29;20062;-48
2022/09/21 02:52:39;;;;;;;0.13;0.13;;;23.90;40.30;;;;;;4821850;29;20137;-49
2022/09/21 02:55:07;;;;;;;0.10;0.00;;;23.90;40.40;;;;;;4821572;29;20473;-49
2022/09/21 02:57:35;;;;;;;0.30;0.10;;;23.90;40.40;;;;;;4821549;29;20061;-47
2022/09/21 03:00:03;;;;;;;1.42;0.10;;;23.90;40.50;;;;;;4821281;29;20761;-51
2022/09/21 03:02:38;;;;;;;1.23;0.10;;;23.90;40.40;;;;;;4821560;29;20546;-48
2022/09/21 03:05:06;;;;;;;0.10;0.10;;;23.90;40.60;;;;;;4815567;29;20051;-52
2022/09/21 03:07:33;;;;;;;0.65;0.10;;;23.90;40.60;;;;;;4816264;29;20085;-52
2022/09/21 03:10:00;;;;;;;0.08;0.05;;;23.90;40.50;;;;;;4820642;29;20583;-51
2022/09/21 03:12:28;;;;;;;0.05;0.00;;;23.90;40.60;;;;;;4821443;29;20060;-50
2022/09/21 03:14:55;;;;;;;1.10;0.10;;;23.90;40.60;;;;;;4820788;29;20615;-49
2022/09/21 03:17:22;;;;;;;1.38;0.10;;;23.90;40.60;;;;;;4820707;29;20050;-47
2022/09/21 03:19:53;;;;;;;0.80;0.10;;;23.90;41.20;;;;;;4821174;29;20060;-48
2022/09/21 03:22:21;;;;;;;0.15;0.10;;;23.90;40.60;;;;;;4821185;29;20549;-50
2022/09/21 03:24:48;;;;;;;0.20;0.10;;;23.90;40.50;;;;;;4821061;29;20042;-47
2022/09/21 03:27:16;;;;;;;0.98;0.10;;;23.90;40.60;;;;;;4821040;29;20149;-48
2022/09/21 03:29:43;;;;;;;0.65;0.10;;;23.90;40.60;;;;;;4820884;29;20231;-49
2022/09/21 03:32:11;;;;;;;0.20;0.10;;;23.90;40.60;;;;;;4820716;29;20498;-50
2022/09/21 03:34:38;;;;;;;0.17;0.17;;;23.90;40.70;;;;;;4825239;29;20137;-48
2022/09/21 03:37:08;;;;;;;1.48;0.10;;;23.90;40.70;;;;;;4819882;29;20181;-48
2022/09/21 03:39:35;;;;;;;0.10;0.10;;;23.90;40.80;;;;;;4818414;29;20091;-48
2022/09/21 03:42:03;;;;;;;0.10;0.00;;;23.80;40.70;;;;;;4820837;29;20721;-47
2022/09/21 03:44:31;;;;;;;1.95;0.10;;;23.80;40.70;;;;;;4820777;29;20050;-48
2022/09/21 03:46:58;;;;;;;0.55;0.00;;;23.80;40.70;;;;;;4819675;29;20112;-50
2022/09/21 03:49:25;;;;;;;3.03;0.10;;;23.80;40.70;;;;;;4819594;29;20050;-47
2022/09/21 03:51:52;;;;;;;0.00;0.00;;;23.90;40.80;;;;;;4817214;29;20129;-50
2022/09/21 03:54:20;;;;;;;1.48;0.10;;;23.80;40.80;;;;;;4820601;29;20074;-50
2022/09/21 03:56:47;;;;;;;0.55;0.10;;;23.80;40.80;;;;;;4820830;29;20570;-51
2022/09/21 03:59:15;;;;;;;0.10;0.10;;;23.80;40.80;;;;;;4820736;29;20129;-49
2022/09/21 04:01:42;;;;;;;0.35;0.10;;;23.80;40.80;;;;;;4819591;29;20042;-50
2022/09/21 04:04:09;;;;;;;0.40;0.10;;;23.80;40.80;;;;;;4820489;29;20046;-48
2022/09/21 04:06:36;;;;;;;3.60;0.10;;;23.70;40.80;;;;;;4819941;29;20099;-50
2022/09/21 04:09:04;;;;;;;2.85;0.10;;;23.70;40.90;;;;;;4820285;29;20405;-50
2022/09/21 04:11:32;;;;;;;2.65;0.10;;;23.80;40.90;;;;;;4820316;29;20415;-49
2022/09/21 04:13:59;;;;;;;0.75;0.20;;;23.70;40.90;;;;;;4820234;29;20129;-53
2022/09/21 04:16:26;;;;;;;1.67;0.32;;;23.80;40.90;;;;;;4820175;29;20511;-50
2022/09/21 04:18:53;;;;;;;1.15;0.20;;;23.80;41.00;;;;;;4822571;29;20126;-48
2022/09/21 04:21:21;;;;;;;0.77;0.30;;;23.70;40.90;;;;;;4820808;29;20054;-50
2022/09/21 04:23:49;;;;;;;0.40;0.10;;;23.70;41.00;;;;;;4820827;29;20077;-54
2022/09/21 04:26:21;;;;;;;1.80;0.60;;;23.70;41.00;;;;;;4820601;29;20039;-49
2022/09/21 04:28:50;;;;;;;0.63;0.20;;;23.70;41.00;;;;;;4820130;29;20058;-49
2022/09/21 04:31:17;;;;;;;1.10;0.15;;;23.70;41.00;;;;;;4817963;29;20042;-54
2022/09/21 04:33:44;;;;;;;0.20;0.10;;;23.70;41.00;;;;;;4821987;29;20136;-52
2022/09/21 04:36:11;;;;;;;0.47;0.10;;;23.70;41.00;;;;;;4820664;29;20038;-51
2022/09/21 04:38:39;;;;;;;0.30;0.30;;;23.70;41.00;;;;;;4818915;29;20111;-52
2022/09/21 04:41:06;;;;;;;1.55;0.20;;;23.70;41.00;;;;;;4819882;29;20111;-52
2022/09/21 04:43:33;;;;;;;0.57;0.20;;;23.70;41.00;;;;;;4818577;29;20055;-49
2022/09/21 04:46:07;;;;;;;1.27;0.30;;;23.70;41.00;;;;;;4819875;29;20583;-52
2022/09/21 04:48:34;;;;;;;1.60;0.38;;;23.70;41.00;;;;;;4812801;29;20068;-51
2022/09/21 04:51:01;;;;;;;0.30;0.20;;;23.70;41.00;;;;;;4819776;29;20055;-49
2022/09/21 04:53:29;;;;;;;1.60;0.20;;;23.70;41.00;;;;;;4818717;29;20112;-49
2022/09/21 04:55:56;;;;;;;1.08;0.20;;;23.70;41.10;;;;;;4819966;29;20050;-53
2022/09/21 04:58:23;;;;;;;1.92;0.60;;;23.70;41.00;;;;;;4816448;29;20054;-50
2022/09/21 05:00:50;;;;;;;1.13;0.30;;;23.70;41.10;;;;;;4819813;29;20053;-50
2022/09/21 05:03:19;;;;;;;0.80;0.30;;;23.60;41.10;;;;;;4820101;29;20050;-54
2022/09/21 05:05:49;;;;;;;0.40;0.10;;;23.70;41.10;;;;;;4820065;29;20066;-50
2022/09/21 05:10:01;;;;;;;0.43;0.10;;;23.70;41.20;;;;;;4819925;29;20058;-50
2022/09/21 05:11:04;;;;;;;0.20;0.10;;;23.70;41.20;;;;;;4819782;29;20423;-49
2022/09/21 05:13:31;;;;;;;1.55;0.30;;;23.70;41.30;;;;;;4819578;29;20043;-48
2022/09/21 05:15:58;;;;;;;0.40;0.10;;;23.70;41.30;;;;;;4819328;29;20133;-51
2022/09/21 05:18:26;;;;;;;1.13;0.20;;;23.70;41.40;;;;;;4813508;29;20076;-53
2022/09/21 05:20:54;;;;;;;2.72;0.45;;;23.70;41.40;;;;;;4817230;29;20133;-51
2022/09/21 05:23:21;;;;;;;0.15;0.10;;;23.70;41.40;;;;;;4817069;29;20058;-49
2022/09/21 05:25:48;;;;;;;2.72;0.10;;;23.60;41.40;;;;;;4816915;29;20170;-51
2022/09/21 05:28:16;;;;;;;1.45;0.10;;;23.70;41.50;;;;;;4818734;29;20623;-51
2022/09/21 05:30:44;;;;;;;2.85;0.20;;;23.60;41.40;;;;;;4817199;29;20070;-49
2022/09/21 05:33:16;;;;;;;3.70;0.10;;;23.60;41.40;;;;;;4813770;29;20049;-53
2022/09/21 05:35:54;;;;;;;1.75;0.30;;;23.60;42.00;;;;;;4817125;29;20113;-49
2022/09/21 05:38:22;;;;;;;0.75;0.40;;;23.60;41.40;;;;;;4818854;29;20166;-53
2022/09/21 05:40:50;;;;;;;1.30;0.05;;;23.60;41.40;;;;;;4818363;29;20039;-50
2022/09/21 05:43:18;;;;;;;1.15;1.08;;;23.60;41.40;;;;;;4822601;29;20046;-50
2022/09/21 05:45:48;;;;;;;1.17;0.17;;;23.60;41.50;;;;;;4819116;29;20046;-50
2022/09/21 05:48:19;;;;;;;0.93;0.10;;;23.60;41.40;;;;;;4822300;29;20053;-54
2022/09/21 05:50:56;;;;;;;0.10;0.10;;;23.60;41.50;;;;;;4817521;29;20073;-52
2022/09/21 05:53:36;;;;;;;0.40;0.20;;;23.60;41.50;;;;;;4816335;29;20076;-52
2022/09/21 05:56:09;;;;;;;1.05;0.40;;;23.60;41.40;;;;;;4816378;29;20158;-58
2022/09/21 05:58:48;;;;;;;1.63;0.77;;;23.60;41.30;;;;;;4820545;29;20099;-49
2022/09/21 06:01:24;;;;;;;9.00;0.20;;;23.60;41.50;;;;;;4817395;29;20046;-50
2022/09/21 06:03:53;;;;;;;5.40;0.38;;;23.60;41.90;;;;;;4822311;29;20042;-49
2022/09/21 06:06:22;;;;;;;2.95;0.22;;;23.60;42.10;;;;;;4821898;29;20046;-49
2022/09/21 06:08:49;;;;;;;3.30;0.15;;;23.70;42.10;;;;;;4818657;29;20035;-48
2022/09/21 06:11:17;;;;;;;1.75;1.30;;;23.70;42.00;;;;;;4820129;29;20068;-50
2022/09/21 06:13:44;;;;;;;4.28;0.28;;;23.70;42.00;;;;;;4821462;29;20042;-49
2022/09/21 06:16:11;;;;;;;6.93;0.38;;;23.70;42.10;;;;;;4821609;29;20411;-49
2022/09/21 06:18:39;;;;;;;1.58;0.20;;;23.70;42.20;;;;;;4822292;29;20483;-51
2022/09/21 06:21:07;;;;;;;2.42;0.10;;;23.70;42.30;;;;;;4817529;29;20071;-53
2022/09/21 06:23:36;;;;;;;1.08;0.22;;;23.70;42.30;;;;;;4821304;29;20708;-53
2022/09/21 06:26:03;;;;;;;0.65;0.10;;;23.70;42.20;;;;;;4817715;29;20039;-52
2022/09/21 06:28:30;;;;;;;2.63;0.20;;;23.80;42.20;;;;;;4821516;29;20046;-59
2022/09/21 06:30:58;;;;;;;4.60;0.20;;;23.80;42.10;;;;;;4823662;29;20372;-55
2022/09/21 06:33:25;;;;;;;1.30;0.10;;;23.80;42.10;;;;;;4822175;29;20054;-55
2022/09/21 06:35:53;;;;;;;1.20;0.30;;;23.80;42.00;;;;;;4826652;29;20133;-52
2022/09/21 06:38:21;;;;;;;4.10;2.17;;;23.90;42.10;;;;;;4820180;29;20111;-59
2022/09/21 06:40:50;;;;;;;2.45;0.10;;;23.90;42.00;;;;;;4823066;29;20066;-47
2022/09/21 06:43:18;;;;;;;0.17;0.10;;;23.90;41.90;;;;;;4820100;29;20054;-58
2022/09/21 06:45:57;;;;;;;1.10;0.17;;;23.90;41.80;;;;;;4821682;29;20099;-57
2022/09/21 06:48:25;;;;;;;2.38;0.40;;;24.00;41.70;;;;;;4820988;29;20042;-58
2022/09/21 06:50:57;;;;;;;1.55;0.30;;;24.00;41.70;;;;;;4822040;29;20585;-60
2022/09/21 06:53:24;;;;;;;1.05;0.30;;;24.10;41.70;;;;;;4820729;29;20074;-48
2022/09/21 06:55:53;;;;;;;18.23;1.00;;;24.10;41.60;;;;;;4820510;29;20129;-49
2022/09/21 06:58:20;;;;;;;2.17;0.28;;;24.10;41.80;;;;;;4820781;29;20094;-46
2022/09/21 07:00:47;;;;;;;3.05;0.88;;;24.10;41.80;;;;;;4821027;29;20076;-46
2022/09/21 07:03:14;;;;;;;5.18;0.55;;;24.20;41.80;;;;;;4823897;29;20133;-54
2022/09/21 07:05:44;;;;;;;10.70;0.20;;;24.20;41.70;;;;;;4823798;29;20042;-49
2022/09/21 07:08:11;;;;;;;2.50;1.02;;;24.20;41.60;;;;;;4821083;29;20473;-56
2022/09/21 07:10:38;;;;;;;2.15;0.75;;;24.30;41.70;;;;;;4820084;29;20424;-54
2022/09/21 07:13:08;;;;;;;2.20;0.20;;;24.30;41.70;;;;;;4811926;29;20066;-51
2022/09/21 07:15:35;;;;;;;2.60;1.23;;;24.30;41.60;;;;;;4820607;29;20054;-51
2022/09/21 07:18:10;;;;;;;3.10;0.20;;;24.40;41.60;;;;;;4819307;29;20054;-50
2022/09/21 07:20:38;;;;;;;3.80;0.30;;;24.40;41.50;;;;;;4821233;29;20141;-49
2022/09/21 07:23:10;;;;;;;1.27;0.10;;;24.40;41.50;;;;;;4821000;29;20042;-50
2022/09/21 07:25:38;;;;;;;4.68;0.65;;;24.40;41.60;;;;;;4820640;29;20053;-50
2022/09/21 07:28:06;;;;;;;3.38;0.20;;;24.40;41.70;;;;;;4821125;29;20050;-50
2022/09/21 07:30:34;;;;;;;1.65;0.40;;;24.50;41.80;;;;;;4820924;29;20504;-59
2022/09/21 07:33:01;;;;;;;3.50;0.30;;;24.50;41.70;;;;;;4817844;29;20054;-54
2022/09/21 07:35:28;;;;;;;1.65;0.38;;;24.50;41.80;;;;;;4826123;29;20512;-54
2022/09/21 07:37:58;;;;;;;2.38;0.20;;;24.60;41.70;;;;;;4819852;29;20042;-54
2022/09/21 07:40:25;;;;;;;1.35;1.00;;;24.60;41.80;;;;;;4816969;29;20126;-49
2022/09/21 07:42:52;;;;;;;3.47;0.20;;;24.60;41.70;;;;;;4818619;29;20046;-53
2022/09/21 07:45:20;;;;;;;2.13;0.30;;;24.60;41.60;;;;;;4820777;29;20130;-52
2022/09/21 07:47:47;;;;;;;8.00;0.47;;;24.70;41.50;;;;;;4820573;29;20050;-51
2022/09/21 07:50:15;;;;;;;1.10;0.10;;;24.70;41.40;;;;;;4820333;29;20073;-52
2022/09/21 07:52:42;;;;;;;7.30;0.20;;;24.70;41.90;;;;;;4819474;29;20062;-50
2022/09/21 07:55:09;;;;;;;4.95;0.63;;;24.80;41.40;;;;;;4816434;29;20158;-55
2022/09/21 08:00:27;;;;;;;1.00;0.30;;;24.80;41.50;;;;;;4751349;30;20801;-56
2022/09/21 08:02:54;;;;;;;1.35;0.20;;;24.80;41.50;;;;;;4763032;30;20525;-57
2022/09/21 08:05:21;;;;;;;0.50;0.40;;;24.90;41.30;;;;;;4760595;30;20044;-58
2022/09/21 08:07:48;;;;;;;0.13;0.10;;;24.90;41.10;;;;;;4757883;30;20597;-57
2022/09/21 08:10:16;;;;;;;1.25;0.32;;;24.90;41.00;;;;;;4762873;30;20540;-59
2022/09/21 08:12:43;;;;;;;2.58;0.20;;;24.90;41.00;;;;;;4761061;30;20095;-60
2022/09/21 08:15:10;;;;;;;0.30;0.30;;;24.90;40.80;;;;;;4755734;30;20040;-54
2022/09/21 08:17:40;;;;;;;1.60;0.25;;;24.90;40.90;;;;;;4757776;30;20056;-55
2022/09/21 08:20:07;;;;;;;2.92;0.20;;;25.00;40.90;;;;;;4760374;30;20547;-58
2022/09/21 08:22:34;;;;;;;3.03;1.40;;;25.00;40.90;;;;;;4748422;30;20063;-56
2022/09/21 08:25:03;;;;;;;1.88;0.40;;;25.00;40.90;;;;;;4760923;30;20146;-51
2022/09/21 08:27:30;;;;;;;3.10;0.70;;;25.00;40.90;;;;;;4740484;30;20090;-50
2022/09/21 08:29:57;;;;;;;1.13;0.10;;;25.00;40.80;;;;;;4755583;30;20645;-49
2022/09/21 08:32:24;;;;;;;4.95;1.20;;;25.00;40.60;;;;;;4743674;30;20070;-55
2022/09/21 08:34:53;;;;;;;0.88;0.30;;;25.00;40.70;;;;;;4767770;30;20051;-53
2022/09/21 08:37:21;;;;;;;0.90;0.30;;;25.00;40.50;;;;;;4773041;29;20074;-55
2022/09/21 08:39:48;;;;;;;2.83;0.77;;;25.00;40.50;;;;;;4819756;29;20137;-56
2022/09/21 08:42:36;;;;;;;2.75;0.75;;;25.00;40.40;;;;;;4813777;29;20118;-55
2022/09/21 08:45:09;;;;;;;1.90;0.20;;;25.10;40.40;;;;;;4819339;29;20041;-55
2022/09/21 08:47:40;;;;;;;3.20;0.43;;;25.00;40.30;;;;;;4819611;29;20046;-58
2022/09/21 08:50:37;;;;;;;1.88;0.38;;;25.00;40.30;;;;;;4819165;29;20902;-58
2022/09/21 08:53:07;;;;;;;1.75;0.47;;;25.10;40.30;;;;;;4816863;29;20064;-57
2022/09/21 08:55:35;;;;;;;1.83;0.20;;;25.00;40.30;;;;;;4819620;29;20065;-60
2022/09/21 08:58:02;;;;;;;3.17;0.30;;;25.00;40.20;;;;;;4818925;29;20050;-57
2022/09/21 09:00:36;;;;;;;2.42;0.30;;;25.00;40.30;;;;;;4819771;29;20133;-58
2022/09/21 09:03:35;;;;;;;1.58;0.80;;;25.10;40.20;;;;;;4819393;29;20035;-58
2022/09/21 09:06:13;;;;;;;1.52;0.20;;;25.10;40.00;;;;;;4814786;29;20070;-53
2022/09/21 09:09:03;;;;;;;0.35;0.20;;;25.10;40.10;;;;;;4819345;29;20074;-46
2022/09/21 09:11:44;;;;;;;2.72;0.38;;;25.10;40.00;;;;;;4819569;29;20058;-48
2022/09/21 09:14:32;;;;;;;2.45;0.57;;;25.10;40.00;;;;;;4823318;29;20078;-67
2022/09/21 09:17:21;;;;;;;5.47;0.82;;;25.10;40.10;;;;;;4821722;29;20103;-49
2022/09/21 09:19:55;;;;;;;1.00;0.45;;;25.10;40.60;;;;;;4822692;29;20133;-52
2022/09/21 09:22:29;;;;;;;1.55;0.20;;;25.10;39.90;;;;;;4823198;29;20078;-47
2022/09/21 09:25:00;;;;;;;4.40;0.40;;;25.10;39.90;;;;;;4822249;29;20081;-52
2022/09/21 09:27:30;;;;;;;3.25;0.65;;;25.10;39.90;;;;;;4821757;29;20125;-45
2022/09/21 09:30:01;;;;;;;41.10;9.07;;;25.20;39.90;;;;;;4822615;29;20046;-52
2022/09/21 09:32:33;;;;;;;40.00;8.00;;;25.20;39.80;;;;;;4822021;29;20145;-49
2022/09/21 09:35:07;;;;;;;36.85;9.25;;;25.10;39.80;;;;;;4821737;29;20501;-54
2022/09/21 09:37:42;;;;;;;25.23;7.40;;;25.20;39.90;;;;;;4822021;29;20042;-45
2022/09/21 09:40:13;;;;;;;23.80;6.03;;;25.20;39.90;;;;;;4818938;29;20058;-45
2022/09/21 09:42:51;;;;;;;20.67;4.50;;;25.20;39.90;;;;;;4822198;29;20543;-51
2022/09/21 09:45:31;;;;;;;14.48;4.90;;;25.20;39.80;;;;;;4820792;29;20046;-47
2022/09/21 09:48:25;;;;;;;24.80;4.45;;;25.30;39.80;;;;;;4822372;29;20072;-56
2022/09/21 09:50:53;;;;;;;14.40;4.10;;;25.30;39.70;;;;;;4822860;29;20058;-42
2022/09/21 09:53:23;;;;;;;17.00;4.05;;;25.30;40.00;;;;;;4822250;29;20046;-46
2022/09/21 09:55:53;;;;;;;14.93;3.63;;;25.40;40.00;;;;;;4822130;29;20050;-45
2022/09/21 09:58:22;;;;;;;17.25;2.25;;;25.40;40.10;;;;;;4822309;29;20046;-48
2022/09/21 10:00:53;;;;;;;17.17;3.72;;;25.40;40.00;;;;;;4821727;29;20042;-42
2022/09/21 10:03:22;;;;;;;16.35;2.58;;;25.40;40.10;;;;;;4821615;29;20122;-41
2022/09/21 10:05:50;;;;;;;12.52;1.55;;;25.50;40.20;;;;;;4822447;29;20043;-44
2022/09/21 10:08:42;;;;;;;12.73;1.95;;;25.50;40.20;;;;;;4822004;29;20157;-43
2022/09/21 10:11:10;;;;;;;170.38;47.03;;;25.60;40.30;;;;;;4816020;29;20042;-42
2022/09/21 10:13:39;;;;;;;46.92;11.40;;;25.60;40.60;;;;;;4816606;29;20050;-43
2022/09/21 10:16:12;;;;;;;35.17;9.20;;;25.60;40.80;;;;;;4815783;29;20054;-46
2022/09/21 10:18:45;;;;;;;35.45;9.27;;;25.70;40.80;;;;;;4821044;29;20135;-49
2022/09/21 10:21:19;;;;;;;49.08;8.70;;;25.70;40.80;;;;;;4821365;29;20038;-46
2022/09/21 10:23:50;;;;;;;38.25;7.22;;;25.80;40.70;;;;;;4821737;29;20050;-43
2022/09/21 10:26:18;;;;;;;32.95;7.35;;;25.80;40.50;;;;;;4824090;29;20273;-42
2022/09/21 10:28:57;;;;;;;24.20;6.72;;;25.80;40.40;;;;;;4821395;29;20047;-43
2022/09/21 10:31:26;;;;;;;22.33;4.18;;;25.90;40.40;;;;;;4820241;29;20077;-42
2022/09/21 10:34:05;;;;;;;30.38;5.15;;;25.90;40.40;;;;;;4818831;29;20049;-43
2022/09/21 10:36:34;;;;;;;29.05;6.35;;;25.90;40.40;;;;;;4821897;29;20397;-42
2022/09/21 10:39:27;;;;;;;21.95;5.72;;;26.00;40.40;;;;;;4818504;29;20046;-40
2022/09/21 10:42:06;;;;;;;15.57;2.80;;;26.00;40.10;;;;;;4818748;29;20050;-40
2022/09/21 10:44:38;;;;;;;16.88;2.78;;;26.00;39.90;;;;;;4820743;29;20039;-41
2022/09/21 10:47:19;;;;;;;18.15;3.83;;;26.00;39.70;;;;;;4823078;29;20062;-41
2022/09/21 10:49:49;;;;;;;14.20;2.47;;;26.10;39.70;;;;;;4820337;29;20139;-41
2022/09/21 10:52:17;;;;;;;20.63;2.58;;;26.10;39.70;;;;;;4815505;29;20137;-41
2022/09/21 10:54:50;;;;;;;12.40;1.92;;;26.10;39.70;;;;;;4821361;29;20050;-41
2022/09/21 10:57:21;;;;;;;11.45;2.22;;;26.10;39.90;;;;;;4821128;29;20054;-41
2022/09/21 10:59:49;;;;;;;10.75;2.05;;;26.10;39.50;;;;;;4821676;29;20046;-41
2022/09/21 11:02:33;;;;;;;10.30;1.63;;;26.10;39.30;;;;;;4821499;29;20058;-42
2022/09/21 11:05:06;;;;;;;7.88;1.45;;;26.20;39.20;;;;;;4821488;29;20361;-41
2022/09/21 11:07:40;;;;;;;5.90;0.95;;;26.20;39.20;;;;;;4821680;29;20134;-42
2022/09/21 11:10:18;;;;;;;11.75;1.63;;;26.20;39.10;;;;;;4821137;29;20140;-42
2022/09/21 11:12:55;;;;;;;5.28;0.98;;;26.20;39.00;;;;;;4821481;29;20081;-42
2022/09/21 11:15:33;;;;;;;4.82;0.77;;;26.30;39.10;;;;;;4820451;29;20130;-41
2022/09/21 11:18:06;;;;;;;5.10;0.60;;;26.20;39.00;;;;;;4821400;29;20122;-42
2022/09/21 11:20:48;;;;;;;8.43;1.17;;;26.30;39.20;;;;;;4821137;29;20046;-42
2022/09/21 11:23:39;;;;;;;4.05;1.13;;;26.30;39.60;;;;;;4820951;29;20042;-41
2022/09/21 11:26:16;;;;;;;7.18;1.30;;;26.30;39.70;;;;;;4820923;29;20057;-42
2022/09/21 11:28:49;;;;;;;4.07;1.15;;;26.30;39.20;;;;;;4816314;29;20735;-39
2022/09/21 11:31:35;;;;;;;4.63;0.50;;;26.30;38.40;;;;;;4810974;29;20091;-43
2022/09/21 11:34:20;;;;;;;9.80;0.17;;;26.30;37.30;;;;;;4819468;29;20054;-43
2022/09/21 11:36:59;;;;;;;2.40;0.30;;;26.20;36.50;;;;;;4816221;29;20587;-43
2022/09/21 11:39:37;;;;;;;4.20;0.15;;;26.10;35.70;;;;;;4819946;29;20137;-41
2022/09/21 11:42:23;;;;;;;3.78;0.63;;;26.10;35.40;;;;;;4817073;29;20076;-40
2022/09/21 11:44:54;;;;;;;3.42;0.52;;;26.10;34.90;;;;;;4819225;29;20043;-41
2022/09/21 11:47:36;;;;;;;3.65;0.25;;;26.00;34.60;;;;;;4820253;29;20095;-41
2022/09/21 11:50:27;;;;;;;16.40;0.43;;;26.00;34.40;;;;;;4820791;29;20645;-40
2022/09/21 11:53:15;;;;;;;3.50;0.28;;;26.00;34.40;;;;;;4818797;29;20423;-41
2022/09/21 11:56:11;;;;;;;5.43;0.40;;;26.00;34.60;;;;;;4820419;29;20050;-42
2022/09/21 11:58:46;;;;;;;5.47;0.20;;;26.00;34.90;;;;;;4813940;29;20078;-42
2022/09/21 12:01:27;;;;;;;4.03;0.10;;;26.00;35.10;;;;;;4816578;29;20055;-42
2022/09/21 12:04:14;;;;;;;1.80;0.10;;;26.00;34.90;;;;;;4816637;29;20129;-42
2022/09/21 12:06:52;;;;;;;2.25;0.20;;;26.00;34.50;;;;;;4819773;29;20044;-42
2022/09/21 12:10:00;;;;;;;5.00;1.42;;;26.00;34.30;;;;;;4819436;29;20443;-48
2022/09/21 12:12:36;;;;;;;6.75;0.32;;;26.10;34.80;;;;;;4775291;30;20058;-46
2022/09/21 12:15:11;;;;;;;13.85;1.65;;;26.10;34.80;;;;;;4778873;30;20051;-48
2022/09/21 12:17:48;;;;;;;1.48;0.20;;;26.20;34.40;;;;;;4780830;30;20055;-46
2022/09/21 12:20:25;;;;;;;0.77;0.10;;;26.20;34.10;;;;;;4781046;29;20055;-54
2022/09/21 12:22:58;;;;;;;1.58;0.15;;;26.30;34.30;;;;;;4776073;30;20804;-51
2022/09/21 12:25:28;;;;;;;3.00;0.15;;;26.30;34.20;;;;;;4781147;30;20612;-53
2022/09/21 12:28:02;;;;;;;1.85;0.10;;;26.30;33.70;;;;;;4781064;30;20062;-48
2022/09/21 12:30:32;;;;;;;1.05;0.10;;;26.40;33.40;;;;;;4780787;30;20122;-50
2022/09/21 12:33:04;;;;;;;0.40;0.10;;;26.40;33.20;;;;;;4780586;30;20063;-49
2022/09/21 12:35:36;;;;;;;1.48;0.75;;;26.40;33.00;;;;;;4781652;29;20136;-45
2022/09/21 12:38:11;;;;;;;3.72;0.10;;;26.50;32.80;;;;;;4780520;30;20058;-43
2022/09/21 12:40:42;;;;;;;7.25;0.10;;;26.50;33.20;;;;;;4778454;30;20441;-45
2022/09/21 12:43:21;;;;;;;0.50;0.10;;;26.50;33.10;;;;;;4778341;30;20319;-48
2022/09/21 12:45:54;;;;;;;0.30;0.30;;;26.60;32.60;;;;;;4780193;29;20713;-48
2022/09/21 12:48:31;;;;;;;4.57;0.57;;;26.60;32.40;;;;;;4816648;29;20257;-46
2022/09/21 12:51:03;;;;;;;2.63;0.10;;;26.70;32.10;;;;;;4819450;29;20046;-49
2022/09/21 12:53:33;;;;;;;1.85;0.10;;;26.70;32.00;;;;;;4817951;29;20138;-45
2022/09/21 12:56:05;;;;;;;1.95;0.57;;;26.70;31.90;;;;;;4816614;29;20123;-43
2022/09/21 12:58:49;;;;;;;1.50;0.10;;;26.80;32.10;;;;;;4816712;29;20058;-48
2022/09/21 13:01:27;;;;;;;6.32;0.10;;;26.90;32.50;;;;;;4809656;29;20127;-52
2022/09/21 13:04:05;;;;;;;10.05;0.10;;;26.90;31.80;;;;;;4818840;29;20046;-42
2022/09/21 13:07:15;;;;;;;2.40;0.10;;;27.00;31.80;;;;;;4814900;29;20589;-42
2022/09/21 13:09:45;;;;;;;11.10;0.20;;;27.00;31.70;;;;;;4808547;29;20051;-44
2022/09/21 13:12:17;;;;;;;1.15;0.10;;;27.00;31.90;;;;;;4819171;29;20075;-42
2022/09/21 13:14:46;;;;;;;1.67;0.10;;;27.00;31.80;;;;;;4818290;29;20046;-41